createdAt,value
2023-05-11T00:00:56.566Z,88.73
2023-05-11T00:02:00.001Z,88.66
2023-05-11T00:03:04.565Z,88.57
2023-05-11T00:04:08.823Z,88.53
2023-05-11T00:05:13.154Z,88.63
2023-05-11T00:06:17.520Z,88.76
2023-05-11T00:07:21.870Z,88.69
2023-05-11T00:08:26.294Z,88.59
2023-05-11T00:09:30.561Z,88.52
2023-05-11T00:10:35.038Z,88.46
2023-05-11T00:11:39.385Z,88.45
2023-05-11T00:12:43.644Z,88.37
2023-05-11T00:13:48.076Z,88.38
2023-05-11T00:14:52.385Z,88.36
2023-05-11T00:15:56.944Z,88.41
2023-05-11T00:17:01.158Z,88.39
2023-05-11T00:18:05.625Z,88.31
2023-05-11T00:19:10.043Z,88.49
2023-05-11T00:20:14.275Z,88.69
2023-05-11T00:21:18.661Z,88.87
2023-05-11T00:22:22.938Z,88.91
2023-05-11T00:23:27.364Z,89.02
2023-05-11T00:24:31.612Z,89.12
2023-05-11T00:25:36.100Z,89.30
2023-05-11T00:26:40.500Z,89.59
2023-05-11T00:27:44.712Z,89.70
2023-05-11T00:28:49.150Z,89.67
2023-05-11T00:29:53.420Z,89.61
2023-05-11T00:30:57.882Z,89.57
2023-05-11T00:32:02.046Z,89.56
2023-05-11T00:33:06.541Z,89.66
2023-05-11T00:34:10.786Z,89.75
2023-05-11T00:35:15.167Z,90.07
2023-05-11T00:36:19.444Z,90.40
2023-05-11T00:37:25.860Z,90.60
2023-05-11T00:38:28.133Z,90.84
2023-05-11T00:39:32.548Z,91.22
2023-05-11T00:40:39.834Z,91.48
2023-05-11T00:41:43.360Z,91.64
2023-05-11T00:42:47.655Z,91.69
2023-05-11T00:43:52.060Z,91.82
2023-05-11T00:44:56.422Z,91.84
2023-05-11T00:46:00.725Z,91.81
2023-05-11T00:47:05.193Z,91.83
2023-05-11T00:48:09.447Z,91.65
2023-05-11T00:49:28.013Z,91.66
2023-05-11T00:50:31.306Z,91.47
2023-05-11T00:51:35.660Z,91.25
2023-05-11T00:52:39.974Z,91.06
2023-05-11T00:53:44.254Z,90.89
2023-05-11T00:54:48.593Z,90.76
2023-05-11T00:55:52.873Z,90.58
2023-05-11T00:56:57.189Z,90.45
2023-05-11T00:58:01.675Z,90.31
2023-05-11T00:59:05.993Z,90.32
2023-05-11T01:00:10.417Z,90.40
2023-05-11T01:01:14.671Z,90.49
2023-05-11T01:02:19.152Z,90.47
2023-05-11T01:03:23.389Z,90.45
2023-05-11T01:04:27.594Z,90.57
2023-05-11T01:05:32.029Z,90.55
2023-05-11T01:06:36.299Z,90.53
2023-05-11T01:07:40.720Z,90.44
2023-05-11T01:08:45.087Z,90.40
2023-05-11T01:09:49.327Z,90.47
2023-05-11T01:10:53.770Z,90.58
2023-05-11T01:11:58.168Z,90.82
2023-05-11T01:13:02.572Z,91.11
2023-05-11T01:14:06.898Z,91.27
2023-05-11T01:15:11.222Z,91.44
2023-05-11T01:16:15.647Z,91.55
2023-05-11T01:17:19.832Z,91.52
2023-05-11T01:18:24.266Z,91.40
2023-05-11T01:19:28.607Z,91.33
2023-05-11T01:20:32.972Z,91.33
2023-05-11T01:21:37.253Z,91.49
2023-05-11T01:22:41.636Z,91.60
2023-05-11T01:23:45.902Z,91.73
2023-05-11T01:24:50.390Z,91.82
2023-05-11T01:25:54.617Z,91.93
2023-05-11T01:26:59.067Z,92.05
2023-05-11T01:28:03.335Z,92.11
2023-05-11T01:29:07.695Z,92.15
2023-05-11T01:30:12.060Z,92.20
2023-05-11T01:31:16.450Z,92.22
2023-05-11T01:32:20.721Z,92.13
2023-05-11T01:33:25.093Z,91.94
2023-05-11T01:34:29.407Z,91.85
2023-05-11T01:35:33.717Z,91.74
2023-05-11T01:36:37.957Z,91.66
2023-05-11T01:37:42.323Z,91.58
2023-05-11T01:38:46.670Z,91.44
2023-05-11T01:39:50.958Z,91.33
2023-05-11T01:40:55.357Z,91.17
2023-05-11T01:41:59.622Z,91.03
2023-05-11T01:43:03.900Z,90.96
2023-05-11T01:44:08.287Z,90.78
2023-05-11T01:45:12.559Z,90.72
2023-05-11T01:46:17.022Z,90.63
2023-05-11T01:47:21.342Z,90.57
2023-05-11T01:48:25.580Z,90.68
2023-05-11T01:49:29.961Z,90.69
2023-05-11T01:50:34.319Z,90.69
2023-05-11T01:51:38.752Z,90.67
2023-05-11T01:52:42.986Z,90.58
2023-05-11T01:53:47.352Z,90.48
2023-05-11T01:54:51.655Z,90.43
2023-05-11T01:55:56.062Z,90.39
2023-05-11T01:57:06.354Z,90.46
2023-05-11T01:58:09.252Z,90.63
2023-05-11T01:59:13.517Z,90.70
2023-05-11T02:00:18.104Z,90.72
2023-05-11T02:01:22.305Z,90.69
2023-05-11T02:02:26.635Z,90.68
2023-05-11T02:03:44.968Z,90.66
2023-05-11T02:04:48.304Z,90.62
2023-05-11T02:05:52.547Z,90.57
2023-05-11T02:06:56.816Z,90.49
2023-05-11T02:08:01.107Z,90.40
2023-05-11T02:09:05.566Z,90.35
2023-05-11T02:10:09.907Z,90.30
2023-05-11T02:11:14.239Z,90.26
2023-05-11T02:12:18.702Z,90.21
2023-05-11T02:13:22.944Z,90.17
2023-05-11T02:14:27.311Z,90.13
2023-05-11T02:15:31.658Z,90.10
2023-05-11T02:16:35.970Z,90.08
2023-05-11T02:17:40.331Z,90.02
2023-05-11T02:18:44.620Z,90.00
2023-05-11T02:19:48.973Z,90.09
2023-05-11T02:20:53.279Z,90.21
2023-05-11T02:21:57.686Z,90.32
2023-05-11T02:23:02.006Z,90.42
2023-05-11T02:24:06.309Z,90.49
2023-05-11T02:25:10.654Z,90.59
2023-05-11T02:26:29.025Z,90.69
2023-05-11T02:27:32.246Z,90.83
2023-05-11T02:28:36.508Z,90.92
2023-05-11T02:29:40.692Z,91.02
2023-05-11T02:30:45.014Z,91.12
2023-05-11T02:31:49.462Z,91.22
2023-05-11T02:32:53.817Z,91.40
2023-05-11T02:33:58.002Z,91.49
2023-05-11T02:35:02.463Z,91.65
2023-05-11T02:36:06.832Z,91.83
2023-05-11T02:37:11.188Z,91.92
2023-05-11T02:38:15.508Z,92.04
2023-05-11T02:39:19.751Z,92.11
2023-05-11T02:40:24.122Z,92.19
2023-05-11T02:41:28.398Z,92.33
2023-05-11T02:42:32.777Z,92.38
2023-05-11T02:43:37.018Z,92.41
2023-05-11T02:44:41.321Z,92.48
2023-05-11T02:45:45.541Z,92.54
2023-05-11T02:46:49.856Z,92.58
2023-05-11T02:47:54.228Z,92.73
2023-05-11T02:48:58.607Z,92.86
2023-05-11T02:50:02.805Z,92.94
2023-05-11T02:51:07.196Z,93.05
2023-05-11T02:52:11.446Z,93.11
2023-05-11T02:53:15.762Z,93.14
2023-05-11T02:54:20.195Z,93.19
2023-05-11T02:55:24.422Z,93.24
2023-05-11T02:56:28.755Z,93.25
2023-05-11T02:57:33.039Z,93.22
2023-05-11T02:58:37.388Z,93.14
2023-05-11T02:59:41.609Z,93.09
2023-05-11T03:00:45.976Z,93.07
2023-05-11T03:01:50.455Z,93.07
2023-05-11T03:02:54.662Z,93.23
2023-05-11T03:03:59.084Z,93.31
2023-05-11T03:05:03.279Z,93.36
2023-05-11T03:06:07.600Z,93.42
2023-05-11T03:07:11.961Z,93.61
2023-05-11T03:08:16.195Z,93.75
2023-05-11T03:09:20.467Z,93.86
2023-05-11T03:10:24.844Z,93.95
2023-05-11T03:11:29.100Z,94.06
2023-05-11T03:12:33.415Z,94.07
2023-05-11T03:13:37.661Z,94.07
2023-05-11T03:14:42.100Z,94.13
2023-05-11T03:15:46.319Z,94.23
2023-05-11T03:16:53.826Z,94.25
2023-05-11T03:17:57.199Z,94.34
2023-05-11T03:19:01.628Z,94.39
2023-05-11T03:20:05.851Z,94.40
2023-05-11T03:21:10.108Z,94.41
2023-05-11T03:22:14.408Z,94.47
2023-05-11T03:23:18.732Z,94.52
2023-05-11T03:24:23.158Z,94.59
2023-05-11T03:25:27.537Z,94.73
2023-05-11T03:26:31.853Z,94.81
2023-05-11T03:27:36.234Z,95.00
2023-05-11T03:28:40.508Z,95.10
2023-05-11T03:29:45.025Z,95.30
2023-05-11T03:30:49.318Z,95.43
2023-05-11T03:31:53.630Z,95.50
2023-05-11T03:32:58.052Z,95.64
2023-05-11T03:34:02.388Z,95.90
2023-05-11T03:36:33.682Z,96.57
2023-05-11T03:37:37.944Z,96.93
2023-05-11T03:38:42.295Z,97.14
2023-05-11T03:39:46.678Z,97.45
2023-05-11T03:40:50.926Z,97.70
2023-05-11T03:41:55.342Z,97.88
2023-05-11T03:42:59.666Z,97.97
2023-05-11T03:44:03.918Z,98.13
2023-05-11T03:45:08.194Z,98.24
2023-05-11T03:46:12.632Z,98.37
2023-05-11T03:47:16.771Z,98.53
2023-05-11T03:48:21.059Z,98.73
2023-05-11T03:49:25.299Z,98.88
2023-05-11T03:50:29.668Z,99.00
2023-05-11T03:51:33.936Z,99.03
2023-05-11T03:52:38.235Z,99.05
2023-05-11T03:53:42.536Z,99.11
2023-05-11T03:54:46.780Z,99.19
2023-05-11T03:55:51.107Z,99.23
2023-05-11T03:56:55.425Z,99.31
2023-05-11T03:58:00.520Z,99.52
2023-05-11T03:59:04.149Z,99.72
2023-05-11T04:00:08.494Z,99.90
2023-05-11T04:01:12.938Z,100.00
2023-05-11T04:02:17.270Z,100.00
2023-05-11T04:03:21.736Z,100.00
2023-05-11T04:04:25.884Z,100.00
2023-05-11T04:05:30.192Z,100.00
2023-05-11T04:06:34.455Z,100.00
2023-05-11T04:07:38.750Z,100.00
2023-05-11T04:08:43.155Z,100.00
2023-05-11T04:09:47.480Z,100.00
2023-05-11T04:10:51.726Z,100.00
2023-05-11T04:11:56.046Z,100.00
2023-05-11T04:13:00.424Z,100.00
2023-05-11T04:14:04.635Z,100.00
2023-05-11T04:15:08.937Z,100.00
2023-05-11T04:16:13.273Z,100.00
2023-05-11T04:17:17.532Z,100.00
2023-05-11T04:18:21.883Z,100.00
2023-05-11T04:19:26.130Z,100.00
2023-05-11T04:20:30.441Z,100.00
2023-05-11T04:21:34.756Z,100.00
2023-05-11T04:22:39.068Z,100.00
2023-05-11T04:23:46.517Z,100.00
2023-05-11T04:24:49.891Z,100.00
2023-05-11T04:25:54.143Z,100.00
2023-05-11T04:26:58.471Z,100.00
2023-05-11T04:28:02.745Z,100.00
2023-05-11T04:29:07.038Z,100.00
2023-05-11T04:30:11.404Z,100.00
2023-05-11T04:31:15.823Z,100.00
2023-05-11T04:32:20.076Z,100.00
2023-05-11T04:33:24.345Z,100.00
2023-05-11T04:34:28.689Z,100.00
2023-05-11T04:35:33.069Z,100.00
2023-05-11T04:36:37.339Z,100.00
2023-05-11T04:37:41.692Z,100.00
2023-05-11T04:38:45.954Z,100.00
2023-05-11T04:39:50.239Z,100.00
2023-05-11T04:40:54.505Z,100.00
2023-05-11T04:41:58.901Z,100.00
2023-05-11T04:43:03.278Z,100.00
2023-05-11T04:44:07.634Z,100.00
2023-05-11T04:45:11.964Z,100.00
2023-05-11T04:46:16.264Z,100.00
2023-05-11T04:47:20.573Z,100.00
2023-05-11T04:48:24.983Z,100.00
2023-05-11T04:49:29.366Z,100.00
2023-05-11T04:50:33.676Z,100.00
2023-05-11T04:51:37.958Z,100.00
2023-05-11T04:52:42.368Z,100.00
2023-05-11T04:53:46.741Z,100.00
2023-05-11T04:54:51.054Z,100.00
2023-05-11T04:55:55.337Z,100.00
2023-05-11T04:56:59.656Z,100.00
2023-05-11T04:58:04.013Z,100.00
2023-05-11T04:59:08.336Z,100.00
2023-05-11T05:00:12.600Z,100.00
2023-05-11T05:01:17.002Z,100.00
2023-05-11T05:02:21.124Z,100.00
2023-05-11T05:03:25.659Z,100.00
2023-05-11T05:04:29.888Z,100.00
2023-05-11T05:05:34.179Z,100.00
2023-05-11T05:06:38.608Z,100.00
2023-05-11T05:07:43.067Z,100.00
2023-05-11T05:08:47.437Z,100.00
2023-05-11T05:09:51.700Z,100.00
2023-05-11T05:10:56.032Z,100.00
2023-05-11T05:12:00.394Z,100.00
2023-05-11T05:13:04.768Z,100.00
2023-05-11T05:14:09.085Z,100.00
2023-05-11T05:15:13.484Z,100.00
2023-05-11T05:16:17.782Z,100.00
2023-05-11T05:17:22.111Z,100.00
2023-05-11T05:18:26.549Z,100.00
2023-05-11T05:19:44.901Z,100.00
2023-05-11T05:20:48.081Z,100.00
2023-05-11T05:21:52.354Z,100.00
2023-05-11T05:22:56.639Z,100.00
2023-05-11T05:24:00.990Z,100.00
2023-05-11T05:25:05.396Z,100.00
2023-05-11T05:26:09.750Z,100.00
2023-05-11T05:27:14.035Z,100.00
2023-05-11T05:28:18.534Z,100.00
2023-05-11T05:29:22.859Z,100.00
2023-05-11T05:30:27.237Z,100.00
2023-05-11T05:32:36.053Z,100.00
2023-05-11T05:33:40.284Z,100.00
2023-05-11T05:34:44.641Z,100.00
2023-05-11T05:35:48.919Z,100.00
2023-05-11T05:36:53.381Z,100.00
2023-05-11T05:37:57.709Z,100.00
2023-05-11T05:39:02.008Z,100.00
2023-05-11T05:40:06.421Z,100.00
2023-05-11T05:41:10.864Z,100.00
2023-05-11T05:42:15.199Z,100.00
2023-05-11T05:43:33.734Z,100.00
2023-05-11T05:44:36.944Z,100.00
2023-05-11T05:45:41.215Z,100.00
2023-05-11T05:46:45.752Z,100.00
2023-05-11T05:47:49.942Z,100.00
2023-05-11T05:48:54.342Z,100.00
2023-05-11T05:51:26.309Z,100.00
2023-05-11T05:52:30.562Z,100.00
2023-05-11T05:53:34.968Z,99.98
2023-05-11T05:54:39.350Z,99.72
2023-05-11T05:55:43.623Z,99.56
2023-05-11T05:56:48.100Z,99.33
2023-05-11T05:57:52.417Z,99.01
2023-05-11T05:58:56.864Z,98.88
2023-05-11T06:00:01.168Z,98.69
2023-05-11T06:01:05.558Z,98.48
2023-05-11T06:02:10.132Z,98.27
2023-05-11T06:03:14.385Z,98.11
2023-05-11T06:04:18.937Z,97.96
2023-05-11T06:05:23.031Z,97.79
2023-05-11T06:06:27.563Z,97.59
2023-05-11T06:07:31.920Z,97.39
2023-05-11T06:08:36.302Z,97.19
2023-05-11T06:09:40.609Z,96.99
2023-05-11T06:10:44.984Z,96.82
2023-05-11T06:11:49.301Z,96.66
2023-05-11T06:12:53.749Z,96.49
2023-05-11T06:14:04.166Z,96.30
2023-05-11T06:15:07.240Z,96.23
2023-05-11T06:16:11.582Z,96.30
2023-05-11T06:17:15.882Z,96.50
2023-05-11T06:18:20.389Z,96.59
2023-05-11T06:19:24.701Z,96.61
2023-05-11T06:20:29.232Z,96.55
2023-05-11T06:21:33.427Z,96.42
2023-05-11T06:22:37.896Z,96.26
2023-05-11T06:23:42.277Z,96.11
2023-05-11T06:24:46.602Z,95.97
2023-05-11T06:25:51.019Z,95.86
2023-05-11T06:26:55.538Z,95.77
2023-05-11T06:27:59.906Z,95.70
2023-05-11T06:29:04.324Z,95.55
2023-05-11T06:30:08.654Z,95.43
2023-05-11T06:31:13.155Z,95.23
2023-05-11T06:32:17.476Z,95.04
2023-05-11T06:33:21.893Z,94.82
2023-05-11T06:34:26.316Z,94.64
2023-05-11T06:35:30.677Z,93.68
2023-05-11T06:36:35.086Z,93.04
2023-05-11T06:37:39.510Z,92.85
2023-05-11T06:38:43.988Z,92.87
2023-05-11T06:39:48.338Z,92.81
2023-05-11T06:40:52.897Z,92.81
2023-05-11T06:42:00.409Z,92.88
2023-05-11T06:43:01.623Z,92.87
2023-05-11T06:44:06.060Z,92.89
2023-05-11T06:45:10.543Z,92.93
2023-05-11T06:46:14.924Z,92.90
2023-05-11T06:47:19.214Z,92.75
2023-05-11T06:48:23.632Z,92.67
2023-05-11T06:49:28.148Z,92.52
2023-05-11T06:50:32.558Z,92.43
2023-05-11T06:51:39.950Z,92.38
2023-05-11T06:52:43.507Z,92.05
2023-05-11T06:53:47.905Z,91.10
2023-05-11T06:54:52.289Z,90.85
2023-05-11T06:55:56.661Z,90.88
2023-05-11T06:57:01.113Z,90.92
2023-05-11T06:58:05.444Z,90.95
2023-05-11T06:59:09.870Z,90.84
2023-05-11T07:00:28.363Z,90.10
2023-05-11T07:01:31.895Z,89.91
2023-05-11T07:02:36.217Z,89.87
2023-05-11T07:03:40.480Z,89.58
2023-05-11T07:04:45.103Z,89.56
2023-05-11T07:05:49.343Z,89.42
2023-05-11T07:06:56.830Z,89.18
2023-05-11T07:08:00.329Z,88.97
2023-05-11T07:09:18.665Z,88.76
2023-05-11T07:10:28.194Z,88.61
2023-05-11T07:11:31.262Z,88.04
2023-05-11T07:12:35.644Z,87.73
2023-05-11T07:13:40.057Z,86.14
2023-05-11T07:14:44.512Z,84.13
2023-05-11T07:15:48.888Z,83.31
2023-05-11T07:16:53.297Z,82.24
2023-05-11T07:19:24.974Z,83.44
2023-05-11T07:20:29.291Z,83.70
2023-05-11T07:21:33.628Z,84.14
2023-05-11T07:22:38.057Z,83.68
2023-05-11T07:23:42.357Z,82.11
2023-05-11T07:24:46.859Z,81.21
2023-05-11T07:25:51.208Z,81.27
2023-05-11T07:26:55.671Z,81.27
2023-05-11T07:28:00.018Z,81.89
2023-05-11T07:29:04.501Z,81.98
2023-05-11T07:30:09.012Z,81.76
2023-05-11T07:31:13.365Z,82.00
2023-05-11T07:32:17.784Z,82.17
2023-05-11T07:33:22.261Z,82.11
2023-05-11T07:34:32.695Z,81.78
2023-05-11T07:35:35.788Z,81.98
2023-05-11T07:36:40.189Z,82.02
2023-05-11T07:37:44.610Z,81.95
2023-05-11T07:38:49.019Z,82.17
2023-05-11T07:39:53.541Z,82.35
2023-05-11T07:40:57.797Z,82.49
2023-05-11T07:42:02.298Z,82.50
2023-05-11T07:43:06.685Z,82.26
2023-05-11T07:44:11.001Z,82.08
2023-05-11T07:45:15.457Z,81.85
2023-05-11T07:46:19.936Z,81.52
2023-05-11T07:47:24.216Z,81.49
2023-05-11T07:48:28.542Z,81.83
2023-05-11T07:49:42.947Z,81.30
2023-05-11T07:50:37.492Z,81.44
2023-05-11T07:51:41.938Z,81.11
2023-05-11T07:52:46.389Z,81.23
2023-05-11T07:53:50.799Z,81.29
2023-05-11T07:54:55.221Z,81.36
2023-05-11T07:55:59.638Z,81.56
2023-05-11T07:58:31.508Z,82.56
2023-05-11T07:59:35.863Z,82.22
2023-05-11T08:00:40.301Z,82.54
2023-05-11T08:01:44.678Z,82.73
2023-05-11T08:02:52.226Z,83.16
2023-05-11T08:03:55.654Z,83.21
2023-05-11T08:04:59.971Z,82.88
2023-05-11T08:06:04.467Z,83.07
2023-05-11T08:07:08.910Z,83.28
2023-05-11T08:08:13.268Z,84.08
2023-05-11T08:09:17.698Z,84.66
2023-05-11T08:10:22.065Z,84.45
2023-05-11T08:11:26.526Z,83.82
2023-05-11T08:12:30.989Z,82.10
2023-05-11T08:13:35.517Z,81.61
2023-05-11T08:14:39.946Z,81.85
2023-05-11T08:15:44.447Z,82.11
2023-05-11T08:16:48.910Z,82.45
2023-05-11T08:17:53.239Z,82.64
2023-05-11T08:18:57.682Z,82.53
2023-05-11T08:20:01.985Z,82.70
2023-05-11T08:21:06.432Z,83.01
2023-05-11T08:22:10.883Z,83.13
2023-05-11T08:23:15.368Z,83.00
2023-05-11T08:24:19.757Z,82.96
2023-05-11T08:25:24.104Z,83.18
2023-05-11T08:26:28.528Z,83.75
2023-05-11T08:27:33.032Z,83.98
2023-05-11T08:28:37.434Z,82.58
2023-05-11T08:29:41.894Z,82.35
2023-05-11T08:30:49.274Z,82.17
2023-05-11T08:31:52.879Z,80.67
2023-05-11T08:32:58.925Z,80.39
2023-05-11T08:34:01.700Z,80.25
2023-05-11T08:35:06.141Z,80.20
2023-05-11T08:36:10.465Z,81.11
2023-05-11T08:37:14.889Z,81.08
2023-05-11T08:38:19.386Z,81.50
2023-05-11T08:39:38.970Z,81.37
2023-05-11T08:40:28.233Z,81.32
2023-05-11T08:41:32.650Z,80.03
2023-05-11T08:42:37.095Z,79.85
2023-05-11T08:43:41.571Z,78.93
2023-05-11T08:44:46.052Z,79.21
2023-05-11T08:45:50.527Z,80.05
2023-05-11T08:47:08.559Z,80.38
2023-05-11T08:47:59.428Z,80.61
2023-05-11T08:49:03.738Z,79.64
2023-05-11T08:50:08.121Z,79.05
2023-05-11T08:52:39.888Z,78.70
2023-05-11T08:53:44.251Z,79.68
2023-05-11T08:54:48.541Z,80.06
2023-05-11T08:55:52.947Z,80.46
2023-05-11T08:56:57.397Z,79.96
2023-05-11T08:58:01.751Z,79.79
2023-05-11T08:59:06.147Z,78.75
2023-05-11T09:00:10.583Z,78.43
2023-05-11T09:01:15.110Z,78.75
2023-05-11T09:02:19.577Z,78.68
2023-05-11T09:03:23.998Z,78.80
2023-05-11T09:04:28.358Z,77.88
2023-05-11T09:05:32.992Z,77.68
2023-05-11T09:06:37.377Z,78.02
2023-05-11T09:07:41.749Z,77.77
2023-05-11T09:08:46.234Z,76.43
2023-05-11T09:09:50.721Z,75.70
2023-05-11T09:10:55.044Z,75.92
2023-05-11T09:11:59.472Z,76.03
2023-05-11T09:13:03.981Z,75.18
2023-05-11T09:14:08.443Z,73.58
2023-05-11T09:15:12.891Z,73.13
2023-05-11T09:16:35.705Z,73.42
2023-05-11T09:17:21.856Z,72.73
2023-05-11T09:18:26.234Z,72.32
2023-05-11T09:19:30.597Z,72.88
2023-05-11T09:20:34.970Z,73.83
2023-05-11T09:21:39.451Z,74.16
2023-05-11T09:22:43.914Z,72.68
2023-05-11T09:23:48.317Z,71.36
2023-05-11T09:24:52.764Z,71.95
2023-05-11T09:25:57.306Z,71.76
2023-05-11T09:27:01.791Z,71.63
2023-05-11T09:28:06.175Z,72.17
2023-05-11T09:29:10.502Z,72.56
2023-05-11T09:31:19.473Z,71.67
2023-05-11T09:32:24.150Z,70.64
2023-05-11T09:33:28.398Z,70.85
2023-05-11T09:34:32.748Z,70.91
2023-05-11T09:35:37.290Z,70.81
2023-05-11T09:36:41.828Z,71.42
2023-05-11T09:37:46.252Z,71.81
2023-05-11T09:38:50.675Z,71.71
2023-05-11T09:40:25.081Z,72.02
2023-05-11T09:40:59.468Z,71.30
2023-05-11T09:42:03.872Z,70.50
2023-05-11T09:43:08.234Z,70.90
2023-05-11T09:44:26.846Z,71.01
2023-05-11T09:45:30.153Z,70.07
2023-05-11T09:46:34.485Z,70.36
2023-05-11T09:47:38.860Z,69.28
2023-05-11T09:48:43.358Z,68.75
2023-05-11T09:49:47.870Z,69.26
2023-05-11T09:50:52.232Z,69.73
2023-05-11T09:51:56.737Z,69.93
2023-05-11T09:53:01.150Z,67.36
2023-05-11T09:54:05.535Z,67.44
2023-05-11T09:55:10.039Z,67.45
2023-05-11T09:56:14.506Z,66.51
2023-05-11T09:57:18.813Z,65.58
2023-05-11T09:58:23.212Z,65.69
2023-05-11T09:59:27.737Z,64.73
2023-05-11T10:00:46.098Z,64.37
2023-05-11T10:01:49.459Z,64.45
2023-05-11T10:02:53.824Z,64.19
2023-05-11T10:04:13.386Z,63.36
2023-05-11T10:05:02.741Z,63.81
2023-05-11T10:06:07.087Z,63.63
2023-05-11T10:07:11.475Z,63.41
2023-05-11T10:08:15.988Z,63.26
2023-05-11T10:09:20.461Z,63.56
2023-05-11T10:10:24.945Z,63.23
2023-05-11T10:11:29.398Z,62.86
2023-05-11T10:12:47.944Z,62.17
2023-05-11T10:13:51.226Z,61.89
2023-05-11T10:14:55.772Z,61.44
2023-05-11T10:16:00.172Z,61.31
2023-05-11T10:17:18.593Z,60.32
2023-05-11T10:18:22.303Z,59.60
2023-05-11T10:19:26.496Z,59.83
2023-05-11T10:20:30.926Z,60.97
2023-05-11T10:21:49.390Z,61.36
2023-05-11T10:22:52.713Z,61.16
2023-05-11T10:23:57.070Z,61.58
2023-05-11T10:25:01.588Z,62.41
2023-05-11T10:26:06.062Z,62.09
2023-05-11T10:27:10.598Z,61.70
2023-05-11T10:28:14.912Z,62.41
2023-05-11T10:29:19.407Z,62.37
2023-05-11T10:30:23.769Z,61.94
2023-05-11T10:31:28.315Z,61.70
2023-05-11T10:32:32.731Z,61.94
2023-05-11T10:33:37.096Z,60.49
2023-05-11T10:34:41.609Z,61.40
2023-05-11T10:35:46.150Z,61.18
2023-05-11T10:36:50.585Z,61.27
2023-05-11T10:37:55.034Z,62.01
2023-05-11T10:38:59.577Z,60.13
2023-05-11T10:40:03.892Z,59.99
2023-05-11T10:41:08.436Z,60.15
2023-05-11T10:42:12.838Z,59.52
2023-05-11T10:43:20.411Z,59.95
2023-05-11T10:44:23.987Z,61.26
2023-05-11T10:45:28.458Z,61.91
2023-05-11T10:46:32.818Z,61.55
2023-05-11T10:47:37.316Z,61.52
2023-05-11T10:48:41.852Z,61.03
2023-05-11T10:49:46.217Z,60.22
2023-05-11T10:50:50.781Z,60.07
2023-05-11T10:51:55.280Z,61.12
2023-05-11T10:52:59.745Z,61.57
2023-05-11T10:54:04.085Z,61.58
2023-05-11T10:55:08.605Z,60.51
2023-05-11T10:56:13.097Z,59.08
2023-05-11T10:57:17.553Z,58.28
2023-05-11T10:58:22.002Z,58.68
2023-05-11T10:59:26.421Z,58.88
2023-05-11T11:00:33.853Z,59.22
2023-05-11T11:01:37.357Z,58.85
2023-05-11T11:02:41.918Z,59.48
2023-05-11T11:03:49.279Z,57.91
2023-05-11T11:04:52.965Z,57.97
2023-05-11T11:06:00.064Z,57.12
2023-05-11T11:07:01.892Z,57.26
2023-05-11T11:08:06.398Z,56.97
2023-05-11T11:09:10.883Z,56.33
2023-05-11T11:10:15.360Z,56.35
2023-05-11T11:11:22.823Z,56.05
2023-05-11T11:12:26.489Z,55.65
2023-05-11T11:13:30.833Z,56.28
2023-05-11T11:14:35.466Z,57.85
2023-05-11T11:15:39.924Z,57.28
2023-05-11T11:16:44.301Z,57.41
2023-05-11T11:17:48.704Z,57.42
2023-05-11T11:18:53.266Z,57.88
2023-05-11T11:19:57.697Z,57.66
2023-05-11T11:21:02.173Z,56.27
2023-05-11T11:22:06.642Z,55.49
2023-05-11T11:23:10.998Z,55.39
2023-05-11T11:24:15.421Z,55.05
2023-05-11T11:25:20.186Z,55.75
2023-05-11T11:26:24.468Z,56.03
2023-05-11T11:27:30.679Z,56.32
2023-05-11T11:28:33.297Z,56.00
2023-05-11T11:29:37.854Z,56.25
2023-05-11T11:30:42.308Z,56.63
2023-05-11T11:31:46.816Z,57.32
2023-05-11T11:32:51.128Z,57.28
2023-05-11T11:33:55.469Z,57.74
2023-05-11T11:34:59.990Z,58.20
2023-05-11T11:36:04.480Z,58.66
2023-05-11T11:37:09.004Z,59.71
2023-05-11T11:38:13.399Z,59.22
2023-05-11T11:39:17.767Z,58.78
2023-05-11T11:40:22.280Z,57.91
2023-05-11T11:41:26.782Z,58.33
2023-05-11T11:42:31.201Z,59.22
2023-05-11T11:43:37.814Z,59.62
2023-05-11T11:44:40.020Z,59.81
2023-05-11T11:45:44.465Z,59.44
2023-05-11T11:46:48.974Z,59.23
2023-05-11T11:47:53.401Z,58.49
2023-05-11T11:49:00.825Z,58.80
2023-05-11T11:50:04.358Z,58.16
2023-05-11T11:51:08.861Z,58.44
2023-05-11T11:52:27.229Z,58.93
2023-05-11T11:53:30.734Z,58.89
2023-05-11T11:54:35.100Z,58.83
2023-05-11T11:55:39.427Z,58.80
2023-05-11T11:56:43.982Z,59.41
2023-05-11T11:57:48.384Z,59.87
2023-05-11T11:58:52.795Z,60.10
2023-05-11T11:59:57.285Z,60.55
2023-05-11T12:01:15.629Z,60.10
2023-05-11T12:02:19.004Z,58.66
2023-05-11T12:03:29.566Z,57.81
2023-05-11T12:04:32.830Z,57.59
2023-05-11T12:05:37.058Z,57.76
2023-05-11T12:06:41.486Z,57.31
2023-05-11T12:07:45.880Z,58.21
2023-05-11T12:08:50.380Z,58.76
2023-05-11T12:09:54.988Z,57.60
2023-05-11T12:10:59.325Z,57.30
2023-05-11T12:12:03.797Z,55.20
2023-05-11T12:13:08.217Z,54.50
2023-05-11T12:14:12.779Z,54.00
2023-05-11T12:15:17.582Z,54.09
2023-05-11T12:16:21.662Z,54.61
2023-05-11T12:17:26.153Z,55.09
2023-05-11T12:18:30.528Z,55.76
2023-05-11T12:19:35.070Z,56.15
2023-05-11T12:20:39.492Z,55.93
2023-05-11T12:21:43.924Z,56.19
2023-05-11T12:22:48.412Z,56.34
2023-05-11T12:23:52.844Z,56.48
2023-05-11T12:24:59.653Z,56.85
2023-05-11T12:26:01.693Z,56.53
2023-05-11T12:27:06.221Z,56.48
2023-05-11T12:28:10.775Z,57.08
2023-05-11T12:29:15.124Z,57.58
2023-05-11T12:30:19.667Z,57.42
2023-05-11T12:31:24.139Z,56.95
2023-05-11T12:32:28.550Z,56.90
2023-05-11T12:33:32.955Z,57.28
2023-05-11T12:34:37.428Z,57.52
2023-05-11T12:35:41.964Z,57.37
2023-05-11T12:36:46.277Z,57.48
2023-05-11T12:37:50.792Z,57.65
2023-05-11T12:38:55.331Z,57.85
2023-05-11T12:39:59.772Z,56.51
2023-05-11T12:41:04.308Z,55.55
2023-05-11T12:42:08.731Z,54.93
2023-05-11T12:43:13.083Z,53.48
2023-05-11T12:44:17.516Z,52.75
2023-05-11T12:45:22.006Z,53.39
2023-05-11T12:46:26.457Z,54.40
2023-05-11T12:47:30.969Z,53.02
2023-05-11T12:48:35.232Z,52.11
2023-05-11T12:49:39.716Z,52.79
2023-05-11T12:50:44.237Z,53.57
2023-05-11T12:51:48.612Z,53.39
2023-05-11T12:52:53.104Z,52.82
2023-05-11T12:53:57.525Z,53.24
2023-05-11T12:55:07.989Z,53.54
2023-05-11T12:56:11.147Z,53.05
2023-05-11T12:57:15.567Z,53.20
2023-05-11T12:58:19.960Z,53.35
2023-05-11T12:59:24.373Z,53.16
2023-05-11T13:00:28.862Z,52.71
2023-05-11T13:01:33.311Z,52.49
2023-05-11T13:02:37.724Z,53.03
2023-05-11T13:03:48.482Z,52.30
2023-05-11T13:04:51.208Z,52.91
2023-05-11T13:05:55.656Z,52.66
2023-05-11T13:07:00.116Z,51.93
2023-05-11T13:08:04.588Z,52.44
2023-05-11T13:09:09.060Z,53.03
2023-05-11T13:10:13.407Z,53.29
2023-05-11T13:11:17.825Z,53.01
2023-05-11T13:12:22.414Z,53.40
2023-05-11T13:13:26.935Z,52.52
2023-05-11T13:14:31.344Z,52.91
2023-05-11T13:15:35.724Z,53.46
2023-05-11T13:16:40.296Z,53.16
2023-05-11T13:17:44.778Z,52.23
2023-05-11T13:18:52.134Z,52.39
2023-05-11T13:19:55.702Z,51.53
2023-05-11T13:21:00.228Z,51.37
2023-05-11T13:22:04.703Z,51.44
2023-05-11T13:23:09.110Z,51.78
2023-05-11T13:24:13.623Z,50.93
2023-05-11T13:25:18.261Z,51.88
2023-05-11T13:26:22.651Z,51.39
2023-05-11T13:27:27.012Z,50.25
2023-05-11T13:28:31.424Z,50.59
2023-05-11T13:29:36.600Z,50.84
2023-05-11T13:30:40.785Z,51.16
2023-05-11T13:31:45.356Z,51.16
2023-05-11T13:32:49.730Z,50.28
2023-05-11T13:33:54.072Z,50.79
2023-05-11T13:34:58.554Z,50.69
2023-05-11T13:36:03.069Z,51.12
2023-05-11T13:37:07.529Z,51.71
2023-05-11T13:38:11.854Z,51.74
2023-05-11T13:39:16.267Z,51.90
2023-05-11T13:40:20.745Z,52.13
2023-05-11T13:41:25.212Z,52.65
2023-05-11T13:42:29.614Z,53.05
2023-05-11T13:43:34.026Z,53.25
2023-05-11T13:44:38.528Z,53.45
2023-05-11T13:45:43.054Z,52.87
2023-05-11T13:46:47.468Z,51.83
2023-05-11T13:47:51.815Z,51.26
2023-05-11T13:48:56.152Z,51.73
2023-05-11T13:50:00.644Z,52.49
2023-05-11T13:51:05.143Z,53.53
2023-05-11T13:52:09.625Z,53.87
2023-05-11T13:53:14.072Z,53.36
2023-05-11T13:54:18.474Z,53.55
2023-05-11T13:55:22.980Z,53.62
2023-05-11T13:56:27.297Z,53.50
2023-05-11T13:57:31.831Z,52.95
2023-05-11T13:58:36.234Z,53.12
2023-05-11T13:59:40.740Z,53.26